sensor_id;sensor_type;location;lat;lon;timestamp;temperature;humidity
23731;DHT22;12046;44.702;10.622;2023-02-02T00:00:55;6.30;99.90
23731;DHT22;12046;44.702;10.622;2023-02-02T00:03:21;6.30;99.90
23731;DHT22;12046;44.702;10.622;2023-02-02T00:05:50;6.20;99.90
23731;DHT22;12046;44.702;10.622;2023-02-02T00:08:17;6.20;99.90
23731;DHT22;12046;44.702;10.622;2023-02-02T00:10:43;6.00;99.90
23731;DHT22;12046;44.702;10.622;2023-02-02T00:13:09;6.00;99.90
23731;DHT22;12046;44.702;10.622;2023-02-02T00:15:38;5.90;99.90
23731;DHT22;12046;44.702;10.622;2023-02-02T00:18:04;5.80;99.90
23731;DHT22;12046;44.702;10.622;2023-02-02T00:20:30;5.80;99.90
23731;DHT22;12046;44.702;10.622;2023-02-02T00:22:56;5.90;99.90
23731;DHT22;12046;44.702;10.622;2023-02-02T00:25:22;5.80;99.90
23731;DHT22;12046;44.702;10.622;2023-02-02T00:27:48;5.90;99.90
23731;DHT22;12046;44.702;10.622;2023-02-02T00:30:14;5.90;99.90
23731;DHT22;12046;44.702;10.622;2023-02-02T00:32:43;6.00;99.90
23731;DHT22;12046;44.702;10.622;2023-02-02T00:35:13;6.00;99.90
23731;DHT22;12046;44.702;10.622;2023-02-02T00:37:40;6.00;99.90
23731;DHT22;12046;44.702;10.622;2023-02-02T00:40:08;6.00;99.90
23731;DHT22;12046;44.702;10.622;2023-02-02T00:42:37;6.00;99.90
23731;DHT22;12046;44.702;10.622;2023-02-02T00:45:03;6.00;99.90
23731;DHT22;12046;44.702;10.622;2023-02-02T00:47:47;6.00;99.90
23731;DHT22;12046;44.702;10.622;2023-02-02T00:50:18;6.00;99.90
23731;DHT22;12046;44.702;10.622;2023-02-02T00:52:45;6.00;99.90
23731;DHT22;12046;44.702;10.622;2023-02-02T00:55:12;6.00;99.90
23731;DHT22;12046;44.702;10.622;2023-02-02T00:57:39;6.00;99.90
23731;DHT22;12046;44.702;10.622;2023-02-02T01:00:07;6.00;99.90
23731;DHT22;12046;44.702;10.622;2023-02-02T01:02:34;5.90;99.90
23731;DHT22;12046;44.702;10.622;2023-02-02T01:05:01;5.80;99.90
23731;DHT22;12046;44.702;10.622;2023-02-02T01:07:27;5.80;99.90
23731;DHT22;12046;44.702;10.622;2023-02-02T01:09:52;5.70;99.90
23731;DHT22;12046;44.702;10.622;2023-02-02T01:12:21;5.70;99.90
23731;DHT22;12046;44.702;10.622;2023-02-02T01:14:47;5.70;99.90
23731;DHT22;12046;44.702;10.622;2023-02-02T01:17:13;5.70;99.90
23731;DHT22;12046;44.702;10.622;2023-02-02T01:19:39;5.70;99.90
23731;DHT22;12046;44.702;10.622;2023-02-02T01:22:06;5.70;99.90
23731;DHT22;12046;44.702;10.622;2023-02-02T01:24:32;5.70;99.90
23731;DHT22;12046;44.702;10.622;2023-02-02T01:26:58;5.70;99.90
23731;DHT22;12046;44.702;10.622;2023-02-02T01:29:27;5.70;99.90
23731;DHT22;12046;44.702;10.622;2023-02-02T01:31:53;5.70;99.90
23731;DHT22;12046;44.702;10.622;2023-02-02T01:34:22;5.70;99.90
23731;DHT22;12046;44.702;10.622;2023-02-02T01:36:47;5.70;99.90
23731;DHT22;12046;44.702;10.622;2023-02-02T01:39:13;5.70;99.90
23731;DHT22;12046;44.702;10.622;2023-02-02T01:41:40;5.60;99.90
23731;DHT22;12046;44.702;10.622;2023-02-02T01:47:11;5.60;99.90
23731;DHT22;12046;44.702;10.622;2023-02-02T01:49:38;5.60;99.90
23731;DHT22;12046;44.702;10.622;2023-02-02T01:52:04;5.60;99.90
23731;DHT22;12046;44.702;10.622;2023-02-02T01:54:36;5.60;99.90
23731;DHT22;12046;44.702;10.622;2023-02-02T01:57:07;5.60;99.90
23731;DHT22;12046;44.702;10.622;2023-02-02T01:59:40;5.60;99.90
23731;DHT22;12046;44.702;10.622;2023-02-02T02:02:07;5.50;99.90
23731;DHT22;12046;44.702;10.622;2023-02-02T02:04:33;5.50;99.90
23731;DHT22;12046;44.702;10.622;2023-02-02T02:07:00;5.40;99.90
23731;DHT22;12046;44.702;10.622;2023-02-02T02:09:27;5.20;99.90
23731;DHT22;12046;44.702;10.622;2023-02-02T02:11:53;5.10;99.90
23731;DHT22;12046;44.702;10.622;2023-02-02T02:14:20;5.00;99.90
23731;DHT22;12046;44.702;10.622;2023-02-02T02:34:51;5.00;99.90
23731;DHT22;12046;44.702;10.622;2023-02-02T02:40:27;5.20;99.90
23731;DHT22;12046;44.702;10.622;2023-02-02T02:42:59;5.30;99.90
23731;DHT22;12046;44.702;10.622;2023-02-02T02:45:27;5.30;99.90
23731;DHT22;12046;44.702;10.622;2023-02-02T02:47:54;5.30;99.90
23731;DHT22;12046;44.702;10.622;2023-02-02T02:50:21;5.30;99.90
23731;DHT22;12046;44.702;10.622;2023-02-02T02:52:51;5.40;99.90
23731;DHT22;12046;44.702;10.622;2023-02-02T02:55:20;5.40;99.90
23731;DHT22;12046;44.702;10.622;2023-02-02T02:57:55;5.40;99.90
23731;DHT22;12046;44.702;10.622;2023-02-02T03:00:56;5.40;99.90
23731;DHT22;12046;44.702;10.622;2023-02-02T03:06:36;5.40;99.90
23731;DHT22;12046;44.702;10.622;2023-02-02T03:09:09;5.40;99.90
23731;DHT22;12046;44.702;10.622;2023-02-02T03:11:36;5.30;99.90
23731;DHT22;12046;44.702;10.622;2023-02-02T03:14:03;5.30;99.90
23731;DHT22;12046;44.702;10.622;2023-02-02T03:16:29;5.30;99.90
23731;DHT22;12046;44.702;10.622;2023-02-02T03:18:55;5.30;99.90
23731;DHT22;12046;44.702;10.622;2023-02-02T03:21:21;5.30;99.90
23731;DHT22;12046;44.702;10.622;2023-02-02T03:23:47;5.30;99.90
23731;DHT22;12046;44.702;10.622;2023-02-02T03:26:13;5.20;99.90
23731;DHT22;12046;44.702;10.622;2023-02-02T03:28:39;5.20;99.90
23731;DHT22;12046;44.702;10.622;2023-02-02T03:31:06;5.20;99.90
23731;DHT22;12046;44.702;10.622;2023-02-02T03:33:34;5.20;99.90
23731;DHT22;12046;44.702;10.622;2023-02-02T03:36:01;5.10;99.90
23731;DHT22;12046;44.702;10.622;2023-02-02T03:38:27;5.10;99.90
23731;DHT22;12046;44.702;10.622;2023-02-02T03:40:52;5.10;99.90
23731;DHT22;12046;44.702;10.622;2023-02-02T03:43:22;5.10;99.90
23731;DHT22;12046;44.702;10.622;2023-02-02T03:45:58;5.00;99.90
23731;DHT22;12046;44.702;10.622;2023-02-02T03:48:24;5.00;99.90
23731;DHT22;12046;44.702;10.622;2023-02-02T03:50:50;5.00;99.90
23731;DHT22;12046;44.702;10.622;2023-02-02T03:53:16;5.00;99.90
23731;DHT22;12046;44.702;10.622;2023-02-02T03:55:42;4.90;99.90
23731;DHT22;12046;44.702;10.622;2023-02-02T03:58:08;4.90;99.90
23731;DHT22;12046;44.702;10.622;2023-02-02T04:00:33;4.90;99.90
23731;DHT22;12046;44.702;10.622;2023-02-02T04:03:00;4.90;99.90
23731;DHT22;12046;44.702;10.622;2023-02-02T04:05:25;4.90;99.90
23731;DHT22;12046;44.702;10.622;2023-02-02T04:07:52;4.90;99.90
23731;DHT22;12046;44.702;10.622;2023-02-02T04:10:18;4.90;99.90
23731;DHT22;12046;44.702;10.622;2023-02-02T04:12:44;4.90;99.90
23731;DHT22;12046;44.702;10.622;2023-02-02T04:15:11;4.90;99.90
23731;DHT22;12046;44.702;10.622;2023-02-02T04:17:37;4.90;99.90
23731;DHT22;12046;44.702;10.622;2023-02-02T04:20:04;4.80;99.90
23731;DHT22;12046;44.702;10.622;2023-02-02T04:22:30;4.80;99.90
23731;DHT22;12046;44.702;10.622;2023-02-02T04:24:56;4.70;99.90
23731;DHT22;12046;44.702;10.622;2023-02-02T04:27:22;4.60;99.90
23731;DHT22;12046;44.702;10.622;2023-02-02T04:29:48;4.60;99.90
23731;DHT22;12046;44.702;10.622;2023-02-02T04:32:14;4.50;99.90
23731;DHT22;12046;44.702;10.622;2023-02-02T04:34:40;4.50;99.90
23731;DHT22;12046;44.702;10.622;2023-02-02T04:37:06;4.50;99.90
23731;DHT22;12046;44.702;10.622;2023-02-02T04:39:32;4.40;99.90
23731;DHT22;12046;44.702;10.622;2023-02-02T04:41:58;4.40;99.90
23731;DHT22;12046;44.702;10.622;2023-02-02T04:44:23;4.40;99.90
23731;DHT22;12046;44.702;10.622;2023-02-02T04:46:49;4.40;99.90
23731;DHT22;12046;44.702;10.622;2023-02-02T04:49:15;4.40;99.90
23731;DHT22;12046;44.702;10.622;2023-02-02T04:51:41;4.40;99.90
23731;DHT22;12046;44.702;10.622;2023-02-02T04:54:06;4.40;99.90
23731;DHT22;12046;44.702;10.622;2023-02-02T04:56:33;4.40;99.90
23731;DHT22;12046;44.702;10.622;2023-02-02T04:58:58;4.40;99.90
23731;DHT22;12046;44.702;10.622;2023-02-02T05:01:24;4.40;99.90
23731;DHT22;12046;44.702;10.622;2023-02-02T05:03:51;4.30;99.90
23731;DHT22;12046;44.702;10.622;2023-02-02T05:06:17;4.30;99.90
23731;DHT22;12046;44.702;10.622;2023-02-02T05:08:44;4.30;99.90
23731;DHT22;12046;44.702;10.622;2023-02-02T05:11:14;4.30;99.90
23731;DHT22;12046;44.702;10.622;2023-02-02T05:13:45;4.30;99.90
23731;DHT22;12046;44.702;10.622;2023-02-02T05:16:11;4.20;99.90
23731;DHT22;12046;44.702;10.622;2023-02-02T05:18:37;4.20;99.90
23731;DHT22;12046;44.702;10.622;2023-02-02T05:21:03;4.20;99.90
23731;DHT22;12046;44.702;10.622;2023-02-02T05:23:29;4.20;99.90
23731;DHT22;12046;44.702;10.622;2023-02-02T05:25:55;4.30;99.90
23731;DHT22;12046;44.702;10.622;2023-02-02T05:28:22;4.40;99.90
23731;DHT22;12046;44.702;10.622;2023-02-02T05:30:48;4.40;99.90
23731;DHT22;12046;44.702;10.622;2023-02-02T05:33:15;4.50;99.90
23731;DHT22;12046;44.702;10.622;2023-02-02T05:35:44;4.60;99.90
23731;DHT22;12046;44.702;10.622;2023-02-02T05:38:10;4.60;99.90
23731;DHT22;12046;44.702;10.622;2023-02-02T05:40:36;4.70;99.90
23731;DHT22;12046;44.702;10.622;2023-02-02T05:43:02;4.70;99.90
23731;DHT22;12046;44.702;10.622;2023-02-02T05:45:27;4.70;99.90
23731;DHT22;12046;44.702;10.622;2023-02-02T05:47:53;4.70;99.90
23731;DHT22;12046;44.702;10.622;2023-02-02T05:50:20;4.60;99.90
23731;DHT22;12046;44.702;10.622;2023-02-02T05:52:46;4.40;99.90
23731;DHT22;12046;44.702;10.622;2023-02-02T05:55:13;4.30;99.90
23731;DHT22;12046;44.702;10.622;2023-02-02T05:57:39;4.10;99.90
23731;DHT22;12046;44.702;10.622;2023-02-02T06:00:05;4.10;99.90
23731;DHT22;12046;44.702;10.622;2023-02-02T06:02:31;4.00;99.90
23731;DHT22;12046;44.702;10.622;2023-02-02T06:04:56;4.00;99.90
23731;DHT22;12046;44.702;10.622;2023-02-02T06:07:22;4.00;99.90
23731;DHT22;12046;44.702;10.622;2023-02-02T06:09:48;4.00;99.90
23731;DHT22;12046;44.702;10.622;2023-02-02T06:12:13;4.00;99.90
23731;DHT22;12046;44.702;10.622;2023-02-02T06:14:39;4.00;99.90
23731;DHT22;12046;44.702;10.622;2023-02-02T06:17:05;4.10;99.90
23731;DHT22;12046;44.702;10.622;2023-02-02T06:19:31;4.10;99.90
23731;DHT22;12046;44.702;10.622;2023-02-02T06:21:57;4.10;99.90
23731;DHT22;12046;44.702;10.622;2023-02-02T06:24:23;4.20;99.90
23731;DHT22;12046;44.702;10.622;2023-02-02T06:26:49;4.20;99.90
23731;DHT22;12046;44.702;10.622;2023-02-02T06:29:15;4.20;99.90
23731;DHT22;12046;44.702;10.622;2023-02-02T06:31:41;4.20;99.90
23731;DHT22;12046;44.702;10.622;2023-02-02T06:34:08;4.20;99.90
23731;DHT22;12046;44.702;10.622;2023-02-02T06:36:35;4.30;99.90
23731;DHT22;12046;44.702;10.622;2023-02-02T06:39:01;4.30;99.90
23731;DHT22;12046;44.702;10.622;2023-02-02T06:41:29;4.30;99.90
23731;DHT22;12046;44.702;10.622;2023-02-02T06:43:56;4.30;99.90
23731;DHT22;12046;44.702;10.622;2023-02-02T06:46:21;4.30;99.90
23731;DHT22;12046;44.702;10.622;2023-02-02T06:48:47;4.30;99.90
23731;DHT22;12046;44.702;10.622;2023-02-02T06:51:13;4.30;99.90
23731;DHT22;12046;44.702;10.622;2023-02-02T06:53:39;4.30;99.90
23731;DHT22;12046;44.702;10.622;2023-02-02T06:56:06;4.30;99.90
23731;DHT22;12046;44.702;10.622;2023-02-02T06:58:33;4.40;99.90
23731;DHT22;12046;44.702;10.622;2023-02-02T07:01:07;4.40;99.90
23731;DHT22;12046;44.702;10.622;2023-02-02T07:03:34;4.40;99.90
23731;DHT22;12046;44.702;10.622;2023-02-02T07:06:29;4.40;99.90
23731;DHT22;12046;44.702;10.622;2023-02-02T07:08:55;4.50;99.90
23731;DHT22;12046;44.702;10.622;2023-02-02T07:11:22;4.50;99.90
23731;DHT22;12046;44.702;10.622;2023-02-02T07:13:48;4.70;99.90
23731;DHT22;12046;44.702;10.622;2023-02-02T07:16:16;4.80;99.90
23731;DHT22;12046;44.702;10.622;2023-02-02T07:18:43;5.00;99.90
23731;DHT22;12046;44.702;10.622;2023-02-02T07:21:18;5.20;99.90
23731;DHT22;12046;44.702;10.622;2023-02-02T07:23:45;5.30;99.90
23731;DHT22;12046;44.702;10.622;2023-02-02T07:26:12;5.40;99.90
23731;DHT22;12046;44.702;10.622;2023-02-02T07:28:38;5.40;99.90
23731;DHT22;12046;44.702;10.622;2023-02-02T07:31:18;5.50;99.90
23731;DHT22;12046;44.702;10.622;2023-02-02T07:33:45;5.60;99.90
23731;DHT22;12046;44.702;10.622;2023-02-02T07:36:12;5.80;99.90
23731;DHT22;12046;44.702;10.622;2023-02-02T07:38:41;6.00;99.90
23731;DHT22;12046;44.702;10.622;2023-02-02T07:41:07;6.10;99.90
23731;DHT22;12046;44.702;10.622;2023-02-02T07:43:33;6.10;99.90
23731;DHT22;12046;44.702;10.622;2023-02-02T07:46:03;6.20;99.90
23731;DHT22;12046;44.702;10.622;2023-02-02T07:48:31;6.30;99.90
23731;DHT22;12046;44.702;10.622;2023-02-02T07:51:04;6.50;99.90
23731;DHT22;12046;44.702;10.622;2023-02-02T07:53:30;6.80;99.90
23731;DHT22;12046;44.702;10.622;2023-02-02T07:58:35;7.40;99.90
23731;DHT22;12046;44.702;10.622;2023-02-02T08:01:03;7.60;99.90
23731;DHT22;12046;44.702;10.622;2023-02-02T08:03:29;7.80;99.90
23731;DHT22;12046;44.702;10.622;2023-02-02T08:05:56;8.00;99.90
23731;DHT22;12046;44.702;10.622;2023-02-02T08:08:22;8.20;99.90
23731;DHT22;12046;44.702;10.622;2023-02-02T08:10:51;8.40;99.90
23731;DHT22;12046;44.702;10.622;2023-02-02T08:13:17;8.60;99.90
23731;DHT22;12046;44.702;10.622;2023-02-02T08:15:43;8.80;99.90
23731;DHT22;12046;44.702;10.622;2023-02-02T08:18:09;9.00;99.90
23731;DHT22;12046;44.702;10.622;2023-02-02T08:20:35;9.20;99.90
23731;DHT22;12046;44.702;10.622;2023-02-02T08:23:01;9.40;99.90
23731;DHT22;12046;44.702;10.622;2023-02-02T08:25:26;9.60;99.90
23731;DHT22;12046;44.702;10.622;2023-02-02T08:27:53;9.80;99.90
23731;DHT22;12046;44.702;10.622;2023-02-02T08:30:20;10.10;99.90
23731;DHT22;12046;44.702;10.622;2023-02-02T08:32:45;10.30;99.90
23731;DHT22;12046;44.702;10.622;2023-02-02T08:35:11;10.70;99.90
23731;DHT22;12046;44.702;10.622;2023-02-02T08:37:37;11.00;99.90
23731;DHT22;12046;44.702;10.622;2023-02-02T08:40:03;11.30;99.90
23731;DHT22;12046;44.702;10.622;2023-02-02T08:42:29;11.60;99.90
23731;DHT22;12046;44.702;10.622;2023-02-02T08:44:55;11.90;99.90
23731;DHT22;12046;44.702;10.622;2023-02-02T08:47:21;12.20;99.60
23731;DHT22;12046;44.702;10.622;2023-02-02T08:49:46;12.40;99.10
23731;DHT22;12046;44.702;10.622;2023-02-02T08:52:13;12.70;98.70
23731;DHT22;12046;44.702;10.622;2023-02-02T08:54:38;12.90;98.30
23731;DHT22;12046;44.702;10.622;2023-02-02T08:57:04;13.20;97.90
23731;DHT22;12046;44.702;10.622;2023-02-02T08:59:30;13.50;97.50
23731;DHT22;12046;44.702;10.622;2023-02-02T09:01:56;13.90;96.80
23731;DHT22;12046;44.702;10.622;2023-02-02T09:04:21;14.20;95.80
23731;DHT22;12046;44.702;10.622;2023-02-02T09:06:47;14.60;95.30
23731;DHT22;12046;44.702;10.622;2023-02-02T09:09:14;15.00;94.60
23731;DHT22;12046;44.702;10.622;2023-02-02T09:11:41;15.60;94.00
23731;DHT22;12046;44.702;10.622;2023-02-02T09:14:09;16.40;93.00
23731;DHT22;12046;44.702;10.622;2023-02-02T09:16:35;17.30;92.00
23731;DHT22;12046;44.702;10.622;2023-02-02T09:19:01;18.30;90.60
23731;DHT22;12046;44.702;10.622;2023-02-02T09:21:27;19.60;87.90
23731;DHT22;12046;44.702;10.622;2023-02-02T09:23:53;21.40;82.10
23731;DHT22;12046;44.702;10.622;2023-02-02T09:26:25;23.20;76.40
23731;DHT22;12046;44.702;10.622;2023-02-02T09:28:59;24.90;70.70
23731;DHT22;12046;44.702;10.622;2023-02-02T09:31:31;26.40;64.10
23731;DHT22;12046;44.702;10.622;2023-02-02T09:34:05;27.70;60.00
23731;DHT22;12046;44.702;10.622;2023-02-02T09:36:32;28.80;57.20
23731;DHT22;12046;44.702;10.622;2023-02-02T09:38:58;30.10;54.80
23731;DHT22;12046;44.702;10.622;2023-02-02T09:57:51;37.40;42.70
23731;DHT22;12046;44.702;10.622;2023-02-02T10:00:32;38.30;41.20
23731;DHT22;12046;44.702;10.622;2023-02-02T10:08:47;40.30;39.00
23731;DHT22;12046;44.702;10.622;2023-02-02T10:11:40;41.20;38.10
23731;DHT22;12046;44.702;10.622;2023-02-02T10:14:19;41.90;37.30
23731;DHT22;12046;44.702;10.622;2023-02-02T10:16:48;42.40;36.30
23731;DHT22;12046;44.702;10.622;2023-02-02T10:19:16;42.80;35.60
23731;DHT22;12046;44.702;10.622;2023-02-02T10:21:53;43.30;34.90
23731;DHT22;12046;44.702;10.622;2023-02-02T10:24:25;43.80;34.50
23731;DHT22;12046;44.702;10.622;2023-02-02T10:27:10;44.40;34.00
23731;DHT22;12046;44.702;10.622;2023-02-02T10:32:33;45.30;33.00
23731;DHT22;12046;44.702;10.622;2023-02-02T10:35:18;45.40;32.60
23731;DHT22;12046;44.702;10.622;2023-02-02T10:37:55;45.80;32.40
23731;DHT22;12046;44.702;10.622;2023-02-02T10:45:50;47.20;31.40
23731;DHT22;12046;44.702;10.622;2023-02-02T10:48:19;47.40;31.00
23731;DHT22;12046;44.702;10.622;2023-02-02T10:50:49;47.30;30.50
23731;DHT22;12046;44.702;10.622;2023-02-02T10:53:16;47.00;30.30
23731;DHT22;12046;44.702;10.622;2023-02-02T10:55:49;46.80;30.50
23731;DHT22;12046;44.702;10.622;2023-02-02T10:58:34;46.80;30.20
23731;DHT22;12046;44.702;10.622;2023-02-02T11:01:06;46.90;30.10
23731;DHT22;12046;44.702;10.622;2023-02-02T11:03:35;47.10;30.10
23731;DHT22;12046;44.702;10.622;2023-02-02T11:06:03;47.30;29.80
23731;DHT22;12046;44.702;10.622;2023-02-02T11:08:49;47.10;29.60
23731;DHT22;12046;44.702;10.622;2023-02-02T11:16:36;47.60;29.40
23731;DHT22;12046;44.702;10.622;2023-02-02T11:24:25;49.00;28.70
23731;DHT22;12046;44.702;10.622;2023-02-02T11:26:55;49.10;28.40
23731;DHT22;12046;44.702;10.622;2023-02-02T11:29:32;49.00;28.10
23731;DHT22;12046;44.702;10.622;2023-02-02T11:32:29;48.70;28.30
23731;DHT22;12046;44.702;10.622;2023-02-02T11:40:27;49.10;28.30
23731;DHT22;12046;44.702;10.622;2023-02-02T11:42:55;49.20;28.00
23731;DHT22;12046;44.702;10.622;2023-02-02T11:45:43;49.00;28.20
23731;DHT22;12046;44.702;10.622;2023-02-02T11:48:26;49.10;28.20
23731;DHT22;12046;44.702;10.622;2023-02-02T11:50:54;49.30;28.30
23731;DHT22;12046;44.702;10.622;2023-02-02T11:53:29;49.30;28.30
23731;DHT22;12046;44.702;10.622;2023-02-02T11:56:03;49.20;28.10
23731;DHT22;12046;44.702;10.622;2023-02-02T12:03:49;48.60;28.00
23731;DHT22;12046;44.702;10.622;2023-02-02T12:08:43;48.40;27.80
23731;DHT22;12046;44.702;10.622;2023-02-02T12:11:35;48.20;27.80
23731;DHT22;12046;44.702;10.622;2023-02-02T12:17:24;48.40;27.90
23731;DHT22;12046;44.702;10.622;2023-02-02T12:20:19;48.60;27.80
23731;DHT22;12046;44.702;10.622;2023-02-02T12:47:57;44.50;27.80
23731;DHT22;12046;44.702;10.622;2023-02-02T13:07:55;44.10;28.40
23731;DHT22;12046;44.702;10.622;2023-02-02T13:10:38;44.20;28.50
23731;DHT22;12046;44.702;10.622;2023-02-02T13:15:42;43.90;28.60
23731;DHT22;12046;44.702;10.622;2023-02-02T13:18:19;43.50;28.50
23731;DHT22;12046;44.702;10.622;2023-02-02T13:21:03;42.80;28.50
23731;DHT22;12046;44.702;10.622;2023-02-02T13:23:55;42.00;28.30
23731;DHT22;12046;44.702;10.622;2023-02-02T13:26:36;41.00;28.10
23731;DHT22;12046;44.702;10.622;2023-02-02T13:31:58;39.80;28.00
23731;DHT22;12046;44.702;10.622;2023-02-02T13:35:26;39.20;27.80
23731;DHT22;12046;44.702;10.622;2023-02-02T13:42:54;36.20;28.20
23731;DHT22;12046;44.702;10.622;2023-02-02T14:05:06;30.60;29.40
23731;DHT22;12046;44.702;10.622;2023-02-02T14:07:42;29.90;29.40
23731;DHT22;12046;44.702;10.622;2023-02-02T14:10:23;29.10;29.60
23731;DHT22;12046;44.702;10.622;2023-02-02T14:12:50;28.20;30.00
23731;DHT22;12046;44.702;10.622;2023-02-02T14:15:16;27.50;30.30
23731;DHT22;12046;44.702;10.622;2023-02-02T14:20:40;26.60;31.20
23731;DHT22;12046;44.702;10.622;2023-02-02T14:26:09;25.80;32.10
23731;DHT22;12046;44.702;10.622;2023-02-02T14:28:44;25.60;32.30
23731;DHT22;12046;44.702;10.622;2023-02-02T14:31:27;25.40;32.70
23731;DHT22;12046;44.702;10.622;2023-02-02T14:45:37;33.10;30.70
23731;DHT22;12046;44.702;10.622;2023-02-02T14:48:25;34.90;30.20
23731;DHT22;12046;44.702;10.622;2023-02-02T14:50:54;36.30;29.90
23731;DHT22;12046;44.702;10.622;2023-02-02T14:53:28;37.40;29.60
23731;DHT22;12046;44.702;10.622;2023-02-02T14:56:07;38.30;29.50
23731;DHT22;12046;44.702;10.622;2023-02-02T14:59:14;38.90;29.30
23731;DHT22;12046;44.702;10.622;2023-02-02T15:01:33;39.60;29.20
23731;DHT22;12046;44.702;10.622;2023-02-02T15:06:43;39.90;29.00
23731;DHT22;12046;44.702;10.622;2023-02-02T15:28:37;38.10;29.40
23731;DHT22;12046;44.702;10.622;2023-02-02T15:33:40;37.10;29.60
23731;DHT22;12046;44.702;10.622;2023-02-02T15:36:18;36.60;29.70
23731;DHT22;12046;44.702;10.622;2023-02-02T15:38:47;36.20;29.80
23731;DHT22;12046;44.702;10.622;2023-02-02T15:41:19;35.80;29.90
23731;DHT22;12046;44.702;10.622;2023-02-02T15:43:48;35.60;30.00
23731;DHT22;12046;44.702;10.622;2023-02-02T15:46:26;35.20;30.00
23731;DHT22;12046;44.702;10.622;2023-02-02T15:51:48;33.90;30.40
23731;DHT22;12046;44.702;10.622;2023-02-02T15:56:51;32.70;31.10
23731;DHT22;12046;44.702;10.622;2023-02-02T15:59:22;32.10;31.30
23731;DHT22;12046;44.702;10.622;2023-02-02T16:04:39;30.70;31.80
23731;DHT22;12046;44.702;10.622;2023-02-02T16:07:30;29.30;32.30
23731;DHT22;12046;44.702;10.622;2023-02-02T16:10:05;27.70;33.10
23731;DHT22;12046;44.702;10.622;2023-02-02T16:12:31;26.20;34.00
23731;DHT22;12046;44.702;10.622;2023-02-02T16:14:59;24.90;34.70
23731;DHT22;12046;44.702;10.622;2023-02-02T16:17:32;23.80;35.80
23731;DHT22;12046;44.702;10.622;2023-02-02T16:20:05;22.80;36.80
23731;DHT22;12046;44.702;10.622;2023-02-02T16:22:35;22.00;37.60
23731;DHT22;12046;44.702;10.622;2023-02-02T16:25:06;21.20;38.50
23731;DHT22;12046;44.702;10.622;2023-02-02T16:27:34;20.60;39.30
23731;DHT22;12046;44.702;10.622;2023-02-02T16:30:07;20.10;40.00
23731;DHT22;12046;44.702;10.622;2023-02-02T16:32:35;19.60;40.60
23731;DHT22;12046;44.702;10.622;2023-02-02T16:35:06;19.20;41.10
23731;DHT22;12046;44.702;10.622;2023-02-02T16:37:50;18.90;41.70
23731;DHT22;12046;44.702;10.622;2023-02-02T16:40:25;18.50;42.30
23731;DHT22;12046;44.702;10.622;2023-02-02T16:43:18;18.30;42.80
23731;DHT22;12046;44.702;10.622;2023-02-02T16:45:51;18.10;43.60
23731;DHT22;12046;44.702;10.622;2023-02-02T16:53:35;17.50;44.90
23731;DHT22;12046;44.702;10.622;2023-02-02T16:56:03;17.30;45.30
23731;DHT22;12046;44.702;10.622;2023-02-02T16:58:30;17.20;45.60
23731;DHT22;12046;44.702;10.622;2023-02-02T17:01:09;17.00;45.90
23731;DHT22;12046;44.702;10.622;2023-02-02T17:03:44;16.90;46.20
23731;DHT22;12046;44.702;10.622;2023-02-02T17:06:12;16.80;46.50
23731;DHT22;12046;44.702;10.622;2023-02-02T17:08:38;16.60;46.70
23731;DHT22;12046;44.702;10.622;2023-02-02T17:11:25;16.50;47.00
23731;DHT22;12046;44.702;10.622;2023-02-02T17:13:53;16.30;47.40
23731;DHT22;12046;44.702;10.622;2023-02-02T17:16:21;16.20;47.70
23731;DHT22;12046;44.702;10.622;2023-02-02T17:18:47;16.10;48.00
23731;DHT22;12046;44.702;10.622;2023-02-02T17:21:20;15.90;48.30
23731;DHT22;12046;44.702;10.622;2023-02-02T17:23:51;15.80;48.60
23731;DHT22;12046;44.702;10.622;2023-02-02T17:26:20;15.70;49.00
23731;DHT22;12046;44.702;10.622;2023-02-02T17:28:46;15.70;49.30
23731;DHT22;12046;44.702;10.622;2023-02-02T17:31:13;15.60;49.50
23731;DHT22;12046;44.702;10.622;2023-02-02T17:33:40;15.50;49.70
23731;DHT22;12046;44.702;10.622;2023-02-02T17:36:06;15.40;50.00
23731;DHT22;12046;44.702;10.622;2023-02-02T17:38:32;15.40;50.20
23731;DHT22;12046;44.702;10.622;2023-02-02T17:41:00;15.20;50.40
23731;DHT22;12046;44.702;10.622;2023-02-02T17:43:27;15.20;50.70
23731;DHT22;12046;44.702;10.622;2023-02-02T17:45:53;15.10;50.80
23731;DHT22;12046;44.702;10.622;2023-02-02T17:48:19;15.00;51.00
23731;DHT22;12046;44.702;10.622;2023-02-02T17:50:45;15.00;51.10
23731;DHT22;12046;44.702;10.622;2023-02-02T17:53:13;14.90;51.20
23731;DHT22;12046;44.702;10.622;2023-02-02T17:55:41;14.90;51.30
23731;DHT22;12046;44.702;10.622;2023-02-02T17:58:08;14.90;51.50
23731;DHT22;12046;44.702;10.622;2023-02-02T18:00:35;14.80;51.60
23731;DHT22;12046;44.702;10.622;2023-02-02T18:03:11;14.80;51.80
23731;DHT22;12046;44.702;10.622;2023-02-02T18:05:38;14.70;52.10
23731;DHT22;12046;44.702;10.622;2023-02-02T18:08:04;14.70;52.30
23731;DHT22;12046;44.702;10.622;2023-02-02T18:10:30;14.70;52.60
23731;DHT22;12046;44.702;10.622;2023-02-02T18:12:56;14.60;52.80
23731;DHT22;12046;44.702;10.622;2023-02-02T18:15:22;14.60;52.90
23731;DHT22;12046;44.702;10.622;2023-02-02T18:17:48;14.60;53.00
23731;DHT22;12046;44.702;10.622;2023-02-02T18:20:14;14.50;53.10
23731;DHT22;12046;44.702;10.622;2023-02-02T18:22:43;14.40;53.30
23731;DHT22;12046;44.702;10.622;2023-02-02T18:25:11;14.40;53.50
23731;DHT22;12046;44.702;10.622;2023-02-02T18:27:37;14.30;53.50
23731;DHT22;12046;44.702;10.622;2023-02-02T18:30:03;14.30;53.60
23731;DHT22;12046;44.702;10.622;2023-02-02T18:32:29;14.20;53.80
23731;DHT22;12046;44.702;10.622;2023-02-02T18:34:55;14.10;53.90
23731;DHT22;12046;44.702;10.622;2023-02-02T18:37:22;14.00;54.20
23731;DHT22;12046;44.702;10.622;2023-02-02T18:39:50;14.00;54.60
23731;DHT22;12046;44.702;10.622;2023-02-02T18:42:18;13.90;55.00
23731;DHT22;12046;44.702;10.622;2023-02-02T18:44:44;13.80;55.00
23731;DHT22;12046;44.702;10.622;2023-02-02T18:47:09;13.70;55.10
23731;DHT22;12046;44.702;10.622;2023-02-02T18:49:35;13.70;55.70
23731;DHT22;12046;44.702;10.622;2023-02-02T18:52:04;13.60;55.10
23731;DHT22;12046;44.702;10.622;2023-02-02T18:54:30;13.60;55.30
23731;DHT22;12046;44.702;10.622;2023-02-02T18:56:56;13.50;55.50
23731;DHT22;12046;44.702;10.622;2023-02-02T18:59:22;13.50;55.70
23731;DHT22;12046;44.702;10.622;2023-02-02T19:01:48;13.40;55.70
23731;DHT22;12046;44.702;10.622;2023-02-02T19:04:14;13.30;55.70
23731;DHT22;12046;44.702;10.622;2023-02-02T19:06:39;13.30;55.80
23731;DHT22;12046;44.702;10.622;2023-02-02T19:09:24;13.20;55.70
23731;DHT22;12046;44.702;10.622;2023-02-02T19:11:50;13.10;55.70